createdAt,value
2022-09-14T00:10:58.542Z,17.61
2022-09-14T00:30:58.477Z,17.47
2022-09-14T00:50:58.432Z,17.35
2022-09-14T01:10:58.391Z,17.2
2022-09-14T01:30:58.371Z,17.14
2022-09-14T01:50:58.334Z,17.08
2022-09-14T02:10:58.340Z,17.05
2022-09-14T02:30:58.276Z,16.96
2022-09-14T02:50:58.255Z,16.82
2022-09-14T03:10:58.222Z,16.81
2022-09-14T03:30:58.222Z,16.77
2022-09-14T03:50:58.120Z,16.65
2022-09-14T04:10:58.083Z,16.33
2022-09-14T04:30:58.088Z,16.02
2022-09-14T04:50:58.017Z,15.82
2022-09-14T05:10:57.984Z,15.83
2022-09-14T05:30:58.003Z,15.68
2022-09-14T05:50:57.912Z,15.58
2022-09-14T06:10:57.881Z,15.43
2022-09-14T06:30:57.840Z,15.18
2022-09-14T06:50:57.811Z,15.01
2022-09-14T07:10:57.814Z,14.9
2022-09-14T08:10:57.675Z,14.55
2022-09-14T08:30:57.643Z,14.51
2022-09-14T08:50:57.610Z,14.63
2022-09-14T09:10:57.575Z,14.95
2022-09-14T09:30:57.553Z,15.23
2022-09-14T09:50:57.513Z,15.19
2022-09-14T10:50:57.417Z,15.22
2022-09-14T11:10:57.374Z,15.08
2022-09-14T11:30:57.347Z,15.09
2022-09-14T11:50:57.326Z,15
2022-09-14T12:10:57.275Z,14.94
2022-09-14T12:30:57.287Z,15.03
2022-09-14T12:50:57.206Z,15.06
2022-09-14T13:10:57.168Z,15.07
2022-09-14T13:30:57.181Z,15.07
2022-09-14T13:50:57.101Z,15.16
2022-09-14T14:10:57.067Z,15.25
2022-09-14T14:30:57.054Z,15.4
2022-09-14T14:50:56.995Z,15.53
2022-09-14T15:10:56.971Z,15.54
2022-09-14T15:30:56.934Z,15.64
2022-09-14T15:50:56.899Z,15.58
2022-09-14T16:10:56.868Z,15.29
2022-09-14T16:30:56.824Z,15.14
2022-09-14T16:50:56.797Z,15
2022-09-14T17:10:56.767Z,14.95
2022-09-14T17:30:56.722Z,14.89
2022-09-14T17:50:56.701Z,14.7
2022-09-14T18:10:56.665Z,14.56
2022-09-14T18:30:56.649Z,14.44
2022-09-14T18:50:56.591Z,14.33
2022-09-14T19:10:56.568Z,14.16
2022-09-14T19:30:56.564Z,14.03
2022-09-14T19:50:56.743Z,13.97
2022-09-14T20:10:56.470Z,13.77
2022-09-14T20:30:56.475Z,13.55
2022-09-14T20:50:56.445Z,13.26
2022-09-14T21:10:56.367Z,13.11
2022-09-14T21:30:56.361Z,12.85
2022-09-14T21:50:56.303Z,12.71
2022-09-14T22:10:56.273Z,13.03
2022-09-14T22:30:56.251Z,13.39
2022-09-14T22:50:56.211Z,13.57
2022-09-14T23:10:56.186Z,13.63
2022-09-14T23:30:56.224Z,13.62
2022-09-14T23:50:56.109Z,13.62
